createdAt,value
2019-04-16T00:00:25.516Z,13.90
2019-04-16T00:02:58.052Z,18.85
2019-04-16T00:05:43.183Z,22.58
2019-04-16T00:08:27.162Z,26.00
2019-04-16T00:13:26.328Z,25.37
2019-04-16T00:16:01.168Z,28.62
2019-04-16T00:18:32.801Z,23.67
2019-04-16T00:21:22.431Z,17.50
2019-04-16T00:23:59.571Z,18.12
2019-04-16T00:26:31.190Z,13.55
2019-04-16T00:29:03.191Z,14.45
2019-04-16T00:31:37.068Z,14.43
2019-04-16T00:34:08.549Z,14.58
2019-04-16T00:36:40.034Z,13.90
2019-04-16T00:39:11.667Z,15.30
2019-04-16T00:41:43.157Z,14.98
2019-04-16T00:44:16.797Z,14.33
2019-04-16T00:46:48.335Z,14.55
2019-04-16T00:49:19.864Z,14.20
2019-04-16T00:51:51.365Z,13.93
2019-04-16T00:54:22.881Z,12.55
2019-04-16T00:56:54.452Z,14.65
2019-04-16T00:59:25.923Z,12.45
2019-04-16T01:01:57.456Z,13.15
2019-04-16T01:04:28.951Z,12.85
2019-04-16T01:07:00.975Z,13.13
2019-04-16T01:09:32.745Z,13.15
2019-04-16T01:12:05.046Z,12.93
2019-04-16T01:14:37.574Z,13.83
2019-04-16T01:17:09.356Z,13.75
2019-04-16T01:19:41.820Z,14.75
2019-04-16T01:22:16.084Z,14.78
2019-04-16T01:24:51.393Z,17.48
2019-04-16T01:27:22.231Z,16.17
2019-04-16T01:29:53.948Z,19.20
2019-04-16T01:32:42.447Z,19.02
2019-04-16T01:35:31.265Z,21.35
2019-04-16T01:38:19.685Z,18.92
2019-04-16T01:40:55.677Z,21.60
2019-04-16T01:43:28.218Z,22.82
2019-04-16T01:46:01.558Z,21.90
2019-04-16T01:48:38.670Z,23.77
2019-04-16T01:51:08.364Z,24.82
2019-04-16T01:53:40.307Z,25.30
2019-04-16T01:56:12.039Z,22.62
2019-04-16T01:58:43.586Z,23.60
2019-04-16T02:01:15.159Z,29.63
2019-04-16T02:03:48.870Z,31.07
2019-04-16T02:06:19.908Z,32.45
2019-04-16T02:08:52.294Z,27.02
2019-04-16T02:11:23.801Z,30.80
2019-04-16T02:13:56.557Z,28.45
2019-04-16T02:16:28.069Z,28.45
2019-04-16T02:19:01.372Z,24.52
2019-04-16T02:21:33.042Z,21.12
2019-04-16T02:24:04.661Z,21.30
2019-04-16T02:26:36.422Z,22.00
2019-04-16T02:29:08.283Z,23.38
2019-04-16T02:31:41.187Z,21.65
2019-04-16T02:34:13.049Z,20.70
2019-04-16T02:36:44.574Z,24.32
2019-04-16T02:39:16.166Z,26.33
2019-04-16T02:41:48.026Z,25.97
2019-04-16T02:44:19.986Z,24.77
2019-04-16T02:46:53.128Z,20.50
2019-04-16T02:49:25.269Z,22.62
2019-04-16T02:51:58.704Z,21.07
2019-04-16T02:54:40.958Z,22.00
2019-04-16T02:57:27.890Z,22.32
2019-04-16T03:00:03.337Z,23.77
2019-04-16T03:02:40.700Z,24.18
2019-04-16T03:05:22.460Z,27.10
2019-04-16T03:07:54.088Z,24.80
2019-04-16T03:10:25.694Z,26.37
2019-04-16T03:12:58.816Z,22.65
2019-04-16T03:15:48.724Z,25.17
2019-04-16T03:18:21.968Z,25.57
2019-04-16T03:20:56.651Z,24.18
2019-04-16T03:23:28.381Z,23.92
2019-04-16T03:26:01.910Z,25.17
2019-04-16T03:28:35.122Z,25.02
2019-04-16T03:31:09.627Z,24.43
2019-04-16T03:33:48.262Z,24.95
2019-04-16T03:36:14.601Z,26.57
2019-04-16T03:38:48.755Z,25.65
2019-04-16T03:41:20.326Z,25.37
2019-04-16T03:43:51.976Z,27.37
2019-04-16T03:46:28.683Z,25.15
2019-04-16T03:49:00.495Z,26.45
2019-04-16T03:51:35.272Z,25.27
2019-04-16T03:54:06.792Z,24.50
2019-04-16T03:56:39.912Z,26.15
2019-04-16T03:59:12.335Z,32.08
2019-04-16T04:01:46.189Z,30.02
2019-04-16T04:04:17.700Z,30.68
2019-04-16T04:06:49.661Z,33.20
2019-04-16T04:09:22.179Z,32.35
2019-04-16T04:11:54.418Z,31.12
2019-04-16T04:14:25.962Z,33.53
2019-04-16T04:16:57.506Z,33.30
2019-04-16T04:19:32.078Z,29.52
2019-04-16T04:22:03.661Z,33.00
2019-04-16T04:24:35.428Z,30.05
2019-04-16T04:27:07.071Z,28.85
2019-04-16T04:29:38.874Z,27.35
2019-04-16T04:32:10.619Z,27.85
2019-04-16T04:34:42.280Z,28.20
2019-04-16T04:37:13.894Z,30.12
2019-04-16T04:39:45.442Z,29.75
2019-04-16T04:42:18.912Z,29.80
2019-04-16T04:44:50.192Z,31.55
2019-04-16T04:47:21.797Z,31.62
2019-04-16T04:49:53.472Z,28.45
2019-04-16T04:52:27.394Z,28.83
2019-04-16T04:54:58.496Z,34.48
2019-04-16T04:57:32.040Z,32.05
2019-04-16T05:00:05.618Z,36.30
2019-04-16T05:02:38.954Z,39.60
2019-04-16T05:05:12.060Z,37.48
2019-04-16T05:07:43.814Z,34.85
2019-04-16T05:10:15.413Z,39.20
2019-04-16T05:12:52.608Z,34.35
2019-04-16T05:15:23.057Z,28.90
2019-04-16T05:17:55.848Z,27.32
2019-04-16T05:20:29.828Z,29.18
2019-04-16T05:23:01.511Z,27.35
2019-04-16T05:25:34.367Z,26.82
2019-04-16T05:28:06.161Z,24.25
2019-04-16T05:30:40.370Z,23.57
2019-04-16T05:33:12.069Z,26.80
2019-04-16T05:35:44.712Z,26.15
2019-04-16T05:38:16.447Z,26.82
2019-04-16T05:40:48.132Z,28.87
2019-04-16T05:43:22.590Z,29.63
2019-04-16T05:45:52.948Z,27.80
2019-04-16T05:48:26.281Z,25.55
2019-04-16T05:50:59.996Z,26.70
2019-04-16T05:53:32.549Z,25.88
2019-04-16T05:56:08.630Z,26.35
2019-04-16T05:58:41.137Z,24.70
2019-04-16T06:01:20.527Z,23.80
2019-04-16T06:03:54.352Z,28.30
2019-04-16T06:06:28.569Z,28.40
2019-04-16T06:08:59.219Z,31.70
2019-04-16T06:11:35.684Z,29.65
2019-04-16T06:14:05.990Z,38.67
2019-04-16T06:16:56.809Z,41.00
2019-04-16T06:19:33.771Z,23.15
2019-04-16T06:22:10.233Z,21.70
2019-04-16T06:24:58.454Z,23.60
2019-04-16T06:27:48.124Z,21.25
2019-04-16T06:30:24.131Z,23.25
2019-04-16T06:32:57.248Z,20.57
2019-04-16T06:35:43.298Z,22.65
2019-04-16T06:38:16.788Z,21.23
2019-04-16T06:40:55.944Z,25.50
2019-04-16T06:43:31.933Z,23.32
2019-04-16T06:46:05.500Z,23.50
2019-04-16T06:51:34.941Z,21.35
2019-04-16T06:54:25.563Z,25.90
2019-04-16T06:57:18.091Z,24.47
2019-04-16T06:59:59.445Z,24.52
2019-04-16T07:03:01.665Z,24.70
2019-04-16T07:05:34.546Z,26.93
2019-04-16T07:10:48.940Z,28.55
2019-04-16T07:13:20.600Z,26.75
2019-04-16T07:15:56.420Z,28.77
2019-04-16T07:18:25.721Z,25.72
2019-04-16T07:21:03.058Z,27.07
2019-04-16T07:23:35.243Z,27.62
2019-04-16T07:26:07.376Z,27.58
2019-04-16T07:28:40.652Z,23.52
2019-04-16T07:31:31.819Z,22.93
2019-04-16T07:36:32.208Z,23.87
2019-04-16T07:39:28.841Z,22.52
2019-04-16T07:42:11.780Z,23.22
2019-04-16T07:44:54.753Z,24.27
2019-04-16T07:47:41.419Z,23.12
2019-04-16T07:50:22.419Z,21.80
2019-04-16T07:52:58.792Z,20.72
2019-04-16T07:55:38.166Z,18.55
2019-04-16T07:58:10.825Z,16.55
2019-04-16T08:00:42.450Z,16.10
2019-04-16T08:03:14.207Z,13.65
2019-04-16T08:05:49.612Z,14.07
2019-04-16T08:08:24.349Z,14.00
2019-04-16T08:10:56.112Z,12.63
2019-04-16T08:13:34.281Z,12.18
2019-04-16T08:16:06.671Z,11.90
2019-04-16T08:18:40.369Z,12.25
2019-04-16T08:21:13.636Z,12.58
2019-04-16T08:23:52.874Z,11.78
2019-04-16T08:26:23.236Z,12.55
2019-04-16T08:28:56.612Z,11.65
2019-04-16T08:31:30.624Z,12.20
2019-04-16T08:34:05.406Z,13.78
2019-04-16T08:36:38.171Z,13.18
2019-04-16T08:39:12.334Z,11.78
2019-04-16T08:41:45.256Z,13.22
2019-04-16T08:44:17.900Z,12.75
2019-04-16T08:46:50.577Z,13.00
2019-04-16T08:49:24.244Z,12.85
2019-04-16T08:51:59.764Z,13.00
2019-04-16T08:54:32.858Z,14.00
2019-04-16T08:57:06.223Z,13.10
2019-04-16T08:59:44.960Z,14.35
2019-04-16T09:02:19.163Z,13.38
2019-04-16T09:04:55.151Z,13.20
2019-04-16T09:07:42.935Z,14.07
2019-04-16T09:10:23.326Z,14.63
2019-04-16T09:13:03.036Z,12.75
2019-04-16T09:15:30.767Z,10.13
2019-04-16T09:18:04.483Z,6.20
2019-04-16T09:20:38.469Z,7.08
2019-04-16T09:23:11.327Z,7.30
2019-04-16T09:26:13.519Z,8.30
2019-04-16T09:28:55.851Z,8.05
2019-04-16T09:31:35.787Z,9.08
2019-04-16T09:34:16.096Z,8.83
2019-04-16T09:36:50.260Z,9.35
2019-04-16T09:39:24.185Z,7.87
2019-04-16T09:41:56.806Z,8.53
2019-04-16T09:44:34.970Z,9.13
2019-04-16T09:47:05.513Z,8.03
2019-04-16T09:49:38.462Z,6.92
2019-04-16T09:52:11.384Z,8.33
2019-04-16T09:54:45.253Z,7.25
2019-04-16T09:57:18.048Z,7.55
2019-04-16T09:59:53.462Z,8.10
2019-04-16T10:02:27.899Z,7.53
2019-04-16T10:05:01.162Z,7.50
2019-04-16T10:07:39.802Z,7.03
2019-04-16T10:10:12.670Z,7.67
2019-04-16T10:12:49.837Z,7.33
2019-04-16T10:15:26.317Z,6.17
2019-04-16T10:18:01.588Z,7.40
2019-04-16T10:20:36.412Z,6.00
2019-04-16T10:23:12.726Z,7.28
2019-04-16T10:25:54.176Z,6.85
2019-04-16T10:28:37.112Z,6.78
2019-04-16T10:31:12.838Z,9.10
2019-04-16T10:33:46.193Z,8.98
2019-04-16T10:36:31.218Z,9.33
2019-04-16T10:39:06.204Z,10.53
2019-04-16T10:41:49.361Z,14.60
2019-04-16T10:44:25.832Z,11.40
2019-04-16T10:47:16.600Z,13.00
2019-04-16T10:49:51.957Z,11.45
2019-04-16T10:52:42.442Z,10.95
2019-04-16T10:55:35.806Z,13.70
2019-04-16T10:58:13.676Z,13.22
2019-04-16T11:01:05.540Z,12.60
2019-04-16T11:03:40.683Z,12.47
2019-04-16T11:06:15.490Z,14.15
2019-04-16T11:08:47.499Z,13.32
2019-04-16T11:11:19.515Z,13.58
2019-04-16T11:13:59.831Z,8.30
2019-04-16T11:16:26.199Z,7.80
2019-04-16T11:19:01.131Z,7.87
2019-04-16T11:21:32.988Z,6.53
2019-04-16T11:24:05.000Z,7.78
2019-04-16T11:26:40.012Z,7.25
2019-04-16T11:29:12.967Z,8.08
2019-04-16T11:31:45.177Z,6.65
2019-04-16T11:34:17.798Z,6.80
2019-04-16T11:37:08.245Z,7.30
2019-04-16T11:39:58.238Z,6.00
2019-04-16T11:42:30.313Z,6.45
2019-04-16T11:45:02.689Z,6.72
2019-04-16T11:47:34.905Z,6.05
2019-04-16T11:50:08.081Z,6.75
2019-04-16T11:52:41.858Z,6.53
2019-04-16T11:55:14.889Z,6.78
2019-04-16T11:57:48.454Z,6.00
2019-04-16T12:00:40.814Z,6.55
2019-04-16T12:03:36.566Z,6.40
2019-04-16T12:06:29.897Z,6.22
2019-04-16T12:09:20.507Z,6.28
2019-04-16T12:11:57.108Z,6.05
2019-04-16T12:14:34.891Z,11.28
2019-04-16T12:17:15.674Z,11.20
2019-04-16T12:20:06.282Z,11.85
2019-04-16T12:22:45.508Z,14.50
2019-04-16T12:25:30.656Z,13.55
2019-04-16T12:30:58.232Z,11.05
2019-04-16T12:33:38.345Z,9.65
2019-04-16T12:36:28.514Z,11.08
2019-04-16T12:39:08.159Z,11.00
2019-04-16T12:42:02.106Z,11.20
2019-04-16T12:44:46.103Z,10.30
2019-04-16T12:47:22.694Z,10.63
2019-04-16T12:50:17.205Z,11.28
2019-04-16T12:52:55.103Z,12.23
2019-04-16T12:55:31.729Z,11.45
2019-04-16T12:58:25.819Z,10.40
2019-04-16T13:01:19.575Z,12.07
2019-04-16T13:03:52.775Z,12.00
2019-04-16T13:06:29.122Z,11.85
2019-04-16T13:09:08.571Z,10.95
2019-04-16T13:11:47.206Z,10.25
2019-04-16T13:14:37.814Z,10.18
2019-04-16T13:17:18.780Z,11.55
2019-04-16T13:20:06.980Z,11.18
2019-04-16T13:23:00.496Z,10.55
2019-04-16T13:25:47.948Z,10.72
2019-04-16T13:28:23.835Z,11.20
2019-04-16T13:30:57.981Z,11.35
2019-04-16T13:33:29.920Z,9.90
2019-04-16T13:36:03.357Z,10.45
2019-04-16T13:38:40.342Z,15.58
2019-04-16T13:41:26.336Z,16.52
2019-04-16T13:43:59.308Z,16.12
2019-04-16T13:46:37.131Z,16.23
2019-04-16T13:49:17.424Z,14.00
2019-04-16T13:51:58.257Z,12.33
2019-04-16T13:54:34.332Z,13.15
2019-04-16T13:57:08.493Z,14.10
2019-04-16T14:00:04.373Z,12.30
2019-04-16T14:03:01.153Z,12.07
2019-04-16T14:05:37.529Z,13.10
2019-04-16T14:10:50.368Z,13.80
2019-04-16T14:13:24.392Z,13.32
2019-04-16T14:15:57.632Z,13.68
2019-04-16T14:21:49.993Z,12.70
2019-04-16T14:24:22.277Z,14.47
2019-04-16T14:26:55.114Z,12.45
2019-04-16T14:29:26.901Z,13.25
2019-04-16T14:31:58.787Z,12.93
2019-04-16T14:34:35.463Z,14.03
2019-04-16T14:37:08.452Z,13.25
2019-04-16T14:39:42.047Z,12.33
2019-04-16T14:42:14.865Z,13.40
2019-04-16T14:44:49.226Z,14.40
2019-04-16T14:47:22.730Z,13.62
2019-04-16T14:49:54.718Z,11.35
2019-04-16T14:52:26.437Z,11.57
2019-04-16T14:55:05.776Z,11.65
2019-04-16T14:57:42.434Z,10.82
2019-04-16T15:00:23.101Z,11.73
2019-04-16T15:03:05.836Z,11.40
2019-04-16T15:05:55.688Z,11.12
2019-04-16T15:08:31.979Z,10.13
2019-04-16T15:11:21.593Z,10.32
2019-04-16T15:14:13.331Z,10.88
2019-04-16T15:17:02.821Z,11.25
2019-04-16T15:19:36.076Z,10.23
2019-04-16T15:22:25.066Z,10.63
2019-04-16T15:25:14.471Z,10.68
2019-04-16T15:28:00.928Z,9.98
2019-04-16T15:30:39.998Z,10.23
2019-04-16T15:33:39.048Z,11.90
2019-04-16T15:36:22.892Z,11.55
2019-04-16T15:39:08.213Z,11.25
2019-04-16T15:41:48.715Z,13.38
2019-04-16T15:44:31.586Z,14.47
2019-04-16T15:47:05.727Z,14.23
2019-04-16T15:49:39.284Z,14.30
2019-04-16T15:52:29.042Z,14.30
2019-04-16T15:55:02.890Z,14.70
2019-04-16T15:57:52.925Z,14.47
2019-04-16T16:00:48.675Z,15.15
2019-04-16T16:03:28.112Z,15.78
2019-04-16T16:06:01.378Z,15.25
2019-04-16T16:08:35.874Z,15.32
2019-04-16T16:11:09.505Z,15.30
2019-04-16T16:13:41.208Z,16.42
2019-04-16T16:16:18.060Z,16.25
2019-04-16T16:18:50.124Z,17.07
2019-04-16T16:21:22.978Z,15.65
2019-04-16T16:23:55.713Z,15.88
2019-04-16T16:26:27.433Z,16.87
2019-04-16T16:28:59.195Z,17.52
2019-04-16T16:31:35.073Z,16.93
2019-04-16T16:34:08.038Z,16.90
2019-04-16T16:36:40.734Z,17.98
2019-04-16T16:39:12.371Z,15.88
2019-04-16T16:41:46.606Z,16.73
2019-04-16T16:44:18.614Z,17.67
2019-04-16T16:46:57.308Z,17.27
2019-04-16T16:49:28.245Z,18.10
2019-04-16T16:52:18.157Z,17.92
2019-04-16T16:54:53.440Z,18.27
2019-04-16T16:57:30.763Z,18.65
2019-04-16T17:00:23.895Z,17.35
2019-04-16T17:03:00.700Z,19.62
2019-04-16T17:05:37.323Z,17.62
2019-04-16T17:08:08.967Z,17.98
2019-04-16T17:10:42.559Z,20.65
2019-04-16T17:13:16.974Z,18.12
2019-04-16T17:15:49.611Z,19.77
2019-04-16T17:18:22.006Z,18.87
2019-04-16T17:20:53.958Z,17.75
2019-04-16T17:23:26.167Z,18.95
2019-04-16T17:25:59.057Z,18.45
2019-04-16T17:28:30.775Z,18.48
2019-04-16T17:31:02.593Z,19.02
2019-04-16T17:33:34.238Z,18.17
2019-04-16T17:36:06.440Z,17.17
2019-04-16T17:38:38.048Z,15.68
2019-04-16T17:41:11.776Z,14.98
2019-04-16T17:43:59.884Z,17.30
2019-04-16T17:46:24.733Z,16.97
2019-04-16T17:51:32.816Z,18.42
2019-04-16T17:54:13.085Z,18.67
2019-04-16T17:56:46.456Z,18.48
2019-04-16T17:59:22.015Z,18.65
2019-04-16T18:01:55.258Z,18.12
2019-04-16T18:04:38.307Z,18.77
2019-04-16T18:07:18.818Z,16.50
2019-04-16T18:10:07.314Z,17.48
2019-04-16T18:12:57.144Z,16.40
2019-04-16T18:15:30.454Z,17.25
2019-04-16T18:18:16.944Z,16.52
2019-04-16T18:21:06.637Z,16.55
2019-04-16T18:23:44.086Z,17.95
2019-04-16T18:26:17.295Z,17.95
2019-04-16T18:28:56.641Z,19.07
2019-04-16T18:31:39.190Z,18.00
2019-04-16T18:34:24.414Z,17.95
2019-04-16T18:39:51.125Z,18.25
2019-04-16T18:42:24.298Z,18.67
2019-04-16T18:45:03.502Z,18.32
2019-04-16T18:48:01.531Z,17.35
2019-04-16T18:50:26.018Z,18.70
2019-04-16T18:52:56.372Z,19.12
2019-04-16T18:55:27.973Z,19.35
2019-04-16T18:57:59.424Z,18.85
2019-04-16T19:00:33.187Z,19.57
2019-04-16T19:03:05.108Z,21.40
2019-04-16T19:05:36.894Z,23.52
2019-04-16T19:08:08.735Z,25.43
2019-04-16T19:10:40.435Z,26.23
2019-04-16T19:13:12.305Z,25.35
2019-04-16T19:15:43.854Z,27.55
2019-04-16T19:18:19.860Z,26.93
2019-04-16T19:20:51.874Z,27.05
2019-04-16T19:23:22.421Z,27.40
2019-04-16T19:25:55.473Z,26.07
2019-04-16T19:28:28.814Z,24.92
2019-04-16T19:31:02.425Z,24.27
2019-04-16T19:33:38.114Z,24.60
2019-04-16T19:36:07.146Z,23.27
2019-04-16T19:38:40.641Z,21.33
2019-04-16T19:41:12.655Z,21.82
2019-04-16T19:43:44.360Z,21.00
2019-04-16T19:46:16.355Z,20.95
2019-04-16T19:48:48.150Z,20.45
2019-04-16T19:51:20.058Z,20.68
2019-04-16T19:53:51.686Z,20.12
2019-04-16T19:56:23.459Z,20.02
2019-04-16T19:58:55.265Z,21.50
2019-04-16T20:01:26.929Z,23.32
2019-04-16T20:03:58.600Z,22.30
2019-04-16T20:06:30.167Z,24.12
2019-04-16T20:09:02.123Z,23.87
2019-04-16T20:11:35.296Z,21.90
2019-04-16T20:16:39.172Z,30.50
2019-04-16T20:19:10.729Z,32.13
2019-04-16T20:21:42.323Z,29.42
2019-04-16T20:24:13.930Z,27.15
2019-04-16T20:26:45.704Z,25.77
2019-04-16T20:29:17.309Z,21.68
2019-04-16T20:31:48.903Z,20.48
2019-04-16T20:34:20.521Z,19.12
2019-04-16T20:36:54.747Z,21.25
2019-04-16T20:39:25.319Z,21.25
2019-04-16T20:41:59.643Z,21.90
2019-04-16T20:44:31.249Z,23.00
2019-04-16T20:47:07.929Z,22.60
2019-04-16T20:49:37.080Z,23.07
2019-04-16T20:52:08.595Z,23.07
2019-04-16T20:54:44.306Z,22.90
2019-04-16T20:57:15.933Z,21.15
2019-04-16T20:59:48.893Z,20.97
2019-04-16T21:02:20.616Z,21.05
2019-04-16T21:04:52.173Z,22.45
2019-04-16T21:07:23.719Z,21.17
2019-04-16T21:09:55.248Z,22.62
2019-04-16T21:12:27.205Z,20.20
2019-04-16T21:14:59.747Z,21.85
2019-04-16T21:17:31.853Z,22.75
2019-04-16T21:20:04.045Z,26.33
2019-04-16T21:22:35.587Z,27.02
2019-04-16T21:25:12.560Z,31.20
2019-04-16T21:27:57.791Z,30.08
2019-04-16T21:30:29.366Z,31.12
2019-04-16T21:33:08.928Z,32.58
2019-04-16T21:35:42.082Z,32.30
2019-04-16T21:38:21.444Z,32.48
2019-04-16T21:40:56.352Z,33.20
2019-04-16T21:43:27.235Z,30.68
2019-04-16T21:45:59.120Z,28.20
2019-04-16T21:48:30.829Z,27.05
2019-04-16T21:51:02.362Z,24.07
2019-04-16T21:53:33.884Z,21.20
2019-04-16T21:56:07.838Z,18.62
2019-04-16T21:58:38.632Z,18.10
2019-04-16T22:01:11.725Z,18.52
2019-04-16T22:03:45.741Z,18.90
2019-04-16T22:06:20.303Z,18.95
2019-04-16T22:08:51.567Z,18.98
2019-04-16T22:11:26.675Z,19.20
2019-04-16T22:13:58.215Z,18.73
2019-04-16T22:16:30.585Z,19.25
2019-04-16T22:19:04.392Z,18.82
2019-04-16T22:21:35.921Z,18.98
2019-04-16T22:24:07.408Z,17.87
2019-04-16T22:26:38.973Z,18.35
2019-04-16T22:29:15.442Z,17.42
2019-04-16T22:31:45.809Z,17.02
2019-04-16T22:34:17.268Z,17.32
2019-04-16T22:36:48.788Z,17.55
2019-04-16T22:39:27.903Z,17.50
2019-04-16T22:42:17.570Z,16.65
2019-04-16T22:44:50.656Z,16.15
2019-04-16T22:47:29.797Z,15.78
2019-04-16T22:50:15.078Z,14.98
2019-04-16T22:52:34.720Z,14.70
2019-04-16T22:55:06.785Z,14.25
2019-04-16T22:57:39.430Z,13.15
2019-04-16T23:00:19.396Z,12.05
2019-04-16T23:02:50.850Z,15.95
2019-04-16T23:05:23.401Z,15.50
2019-04-16T23:07:55.034Z,17.55
2019-04-16T23:10:26.579Z,16.77
2019-04-16T23:13:00.670Z,18.62
2019-04-16T23:15:33.402Z,17.92
2019-04-16T23:18:04.892Z,20.75
2019-04-16T23:20:37.152Z,20.08
2019-04-16T23:23:09.229Z,20.97
2019-04-16T23:25:40.842Z,20.17
2019-04-16T23:28:13.376Z,25.35
2019-04-16T23:30:47.931Z,23.65
2019-04-16T23:33:20.567Z,25.70
2019-04-16T23:35:52.323Z,25.37
2019-04-16T23:38:23.926Z,27.42
2019-04-16T23:40:55.881Z,27.32
2019-04-16T23:43:32.032Z,26.02
2019-04-16T23:46:23.656Z,29.57
2019-04-16T23:49:16.518Z,24.15
2019-04-16T23:52:06.644Z,25.23
2019-04-16T23:54:40.751Z,28.75
2019-04-16T23:59:49.696Z,23.35
